Time;durP1;ratioP1;P1;durP2;ratioP2;P2;SDS_P1;SDS_P2;PMS_P1;PMS_P2;Temp;Humidity;BMP_temperature;BMP_pressure;BME280_temperature;BME280_humidity;BME280_pressure;Samples;Min_cycle;Max_cycle;Signal;HPM_P1;HPM_P2
2023/05/25 00:00:22;;;;;;;7.88;5.00;;;9.90;84.70;;;;;;6289435;28;20423;-79
2023/05/25 00:03:26;;;;;;;10.18;5.10;;;9.90;85.10;;;;;;6289534;28;20049;-79
2023/05/25 00:06:28;;;;;;;9.55;4.88;;;9.80;85.40;;;;;;6288370;28;20049;-79
2023/05/25 00:09:31;;;;;;;7.80;5.43;;;9.80;85.80;;;;;;6288199;28;20081;-79
2023/05/25 00:12:35;;;;;;;8.65;4.72;;;9.80;86.80;;;;;;6288514;28;20045;-79
2023/05/25 00:15:37;;;;;;;10.32;5.32;;;9.70;87.20;;;;;;6287902;28;20372;-79
2023/05/25 00:18:38;;;;;;;11.32;4.43;;;9.70;86.90;;;;;;6288039;28;20499;-79
2023/05/25 00:21:40;;;;;;;12.68;5.43;;;9.70;87.20;;;;;;6288591;28;20043;-78
2023/05/25 00:24:43;;;;;;;7.45;4.57;;;9.60;87.30;;;;;;6295243;28;20048;-79
2023/05/25 00:27:45;;;;;;;15.13;7.68;;;9.60;87.60;;;;;;6312444;28;20486;-79
2023/05/25 00:30:46;;;;;;;11.18;5.28;;;9.60;87.90;;;;;;6338792;28;20052;-79
2023/05/25 00:33:49;;;;;;;12.20;6.43;;;9.60;88.10;;;;;;6317705;28;20044;-79
2023/05/25 00:36:50;;;;;;;14.30;5.20;;;9.50;88.30;;;;;;6314058;28;20055;-78
2023/05/25 00:39:53;;;;;;;7.63;4.65;;;9.50;88.60;;;;;;6314481;28;20049;-79
2023/05/25 00:42:57;;;;;;;14.02;4.65;;;9.50;89.00;;;;;;6313450;28;20044;-78
2023/05/25 00:45:58;;;;;;;13.65;4.95;;;9.50;89.30;;;;;;6309052;28;20049;-79
2023/05/25 00:49:00;;;;;;;12.63;5.95;;;9.40;89.50;;;;;;6288806;28;20132;-79
2023/05/25 00:52:03;;;;;;;9.20;5.55;;;9.40;89.90;;;;;;6288568;28;20117;-79
2023/05/25 00:55:08;;;;;;;13.43;5.15;;;9.40;90.20;;;;;;6289366;28;20057;-79
2023/05/25 00:58:13;;;;;;;12.63;5.05;;;9.40;90.30;;;;;;6288008;28;20071;-79
2023/05/25 01:01:16;;;;;;;6.70;4.72;;;9.40;90.40;;;;;;6288313;28;20115;-78
2023/05/25 01:04:18;;;;;;;10.68;5.10;;;9.50;90.50;;;;;;6287910;28;20055;-79
2023/05/25 01:07:24;;;;;;;11.80;5.30;;;9.50;90.40;;;;;;6288368;28;20055;-79
2023/05/25 01:10:31;;;;;;;13.10;4.65;;;9.50;90.50;;;;;;6288783;28;20041;-79
2023/05/25 01:13:36;;;;;;;9.00;5.22;;;9.50;90.40;;;;;;6288690;28;20047;-79
2023/05/25 01:16:39;;;;;;;9.68;4.88;;;9.60;90.40;;;;;;6288561;28;20052;-79
2023/05/25 01:19:44;;;;;;;12.43;6.40;;;9.60;90.50;;;;;;6289147;28;20055;-78
2023/05/25 01:22:55;;;;;;;11.00;4.45;;;9.50;90.40;;;;;;6290394;28;20041;-78
2023/05/25 01:26:01;;;;;;;18.38;5.57;;;9.50;90.50;;;;;;6288692;28;20049;-77
2023/05/25 01:29:04;;;;;;;12.40;5.05;;;9.50;90.60;;;;;;6285774;28;20539;-77
2023/05/25 01:32:06;;;;;;;10.02;5.00;;;9.50;90.70;;;;;;6287020;28;20063;-78
2023/05/25 01:35:09;;;;;;;10.77;4.45;;;9.40;90.80;;;;;;6286007;28;20059;-79
2023/05/25 01:38:12;;;;;;;11.23;5.82;;;9.40;90.90;;;;;;6287258;28;20059;-78
2023/05/25 01:41:14;;;;;;;10.50;5.38;;;9.40;91.00;;;;;;6286977;28;20041;-78
2023/05/25 01:44:16;;;;;;;9.70;4.15;;;9.40;91.10;;;;;;6280578;28;20056;-77
2023/05/25 01:47:23;;;;;;;8.90;4.82;;;9.40;91.20;;;;;;6276743;28;20053;-77
2023/05/25 01:50:31;;;;;;;12.83;5.13;;;9.30;91.20;;;;;;6277807;28;20049;-77
2023/05/25 01:53:40;;;;;;;10.10;3.97;;;9.30;91.20;;;;;;6275764;28;20284;-78
2023/05/25 01:56:45;;;;;;;8.65;4.80;;;9.30;91.20;;;;;;6274967;28;20056;-77
2023/05/25 01:59:49;;;;;;;10.23;5.63;;;9.40;91.30;;;;;;6275072;28;20510;-77
2023/05/25 02:02:51;;;;;;;9.90;5.57;;;9.40;91.30;;;;;;6275322;28;20041;-77
2023/05/25 02:05:56;;;;;;;7.60;5.25;;;9.40;91.30;;;;;;6275050;28;20380;-77
2023/05/25 02:08:59;;;;;;;13.85;4.95;;;9.40;91.30;;;;;;6275497;28;20072;-77
2023/05/25 02:12:01;;;;;;;18.00;4.35;;;9.40;91.30;;;;;;6276918;28;20041;-77
2023/05/25 02:15:03;;;;;;;8.13;4.70;;;9.40;91.40;;;;;;6280727;28;20503;-77
2023/05/25 02:18:05;;;;;;;6.82;4.50;;;9.40;91.40;;;;;;6289210;28;20048;-77
2023/05/25 02:21:07;;;;;;;9.55;4.72;;;9.40;91.40;;;;;;6304814;28;20052;-77
2023/05/25 02:24:10;;;;;;;7.43;5.18;;;9.40;91.40;;;;;;6305408;28;20044;-77
2023/05/25 02:27:12;;;;;;;15.85;5.22;;;9.40;91.40;;;;;;6305349;28;20182;-77
2023/05/25 02:30:14;;;;;;;15.15;5.53;;;9.40;91.50;;;;;;6304831;28;20403;-77
2023/05/25 02:33:17;;;;;;;9.15;3.72;;;9.40;91.50;;;;;;6279629;28;20408;-77
2023/05/25 02:36:19;;;;;;;11.88;5.65;;;9.40;91.60;;;;;;6280012;28;20112;-77
2023/05/25 02:39:25;;;;;;;10.27;4.57;;;9.50;91.60;;;;;;6279896;28;20521;-78
2023/05/25 02:42:26;;;;;;;11.70;6.93;;;9.50;91.60;;;;;;6303184;28;20044;-78
2023/05/25 02:45:28;;;;;;;9.65;4.70;;;9.50;91.60;;;;;;6322369;28;20048;-78
2023/05/25 02:48:30;;;;;;;9.55;4.70;;;9.50;91.60;;;;;;6321164;28;20049;-78
2023/05/25 02:51:32;;;;;;;11.57;4.10;;;9.50;91.50;;;;;;6306239;28;20063;-77
2023/05/25 02:54:36;;;;;;;10.52;4.78;;;9.60;91.50;;;;;;6305615;28;20127;-77
2023/05/25 02:57:37;;;;;;;10.93;4.93;;;9.60;91.50;;;;;;6304095;28;20144;-78
2023/05/25 03:00:41;;;;;;;8.02;5.10;;;9.60;91.50;;;;;;6313552;28;20075;-79
2023/05/25 03:03:43;;;;;;;8.73;4.40;;;9.60;91.50;;;;;;6316387;28;20104;-78
2023/05/25 03:06:45;;;;;;;7.45;4.40;;;9.60;91.50;;;;;;6316258;28;20052;-79
2023/05/25 03:09:48;;;;;;;8.85;4.60;;;9.60;91.50;;;;;;6315770;28;20048;-78
2023/05/25 03:12:49;;;;;;;15.18;7.97;;;9.50;91.60;;;;;;6316411;28;20055;-79
2023/05/25 03:15:51;;;;;;;10.45;6.30;;;9.50;91.70;;;;;;6316163;28;20040;-78
2023/05/25 03:18:53;;;;;;;14.48;4.97;;;9.40;91.80;;;;;;6316123;28;20055;-78
2023/05/25 03:21:54;;;;;;;8.65;5.18;;;9.40;92.00;;;;;;6316522;28;20055;-78
2023/05/25 03:24:58;;;;;;;10.68;4.93;;;9.40;92.10;;;;;;6315359;28;20475;-78
2023/05/25 03:28:00;;;;;;;11.30;6.05;;;9.30;92.30;;;;;;6316028;28;20125;-79
2023/05/25 03:31:01;;;;;;;9.73;4.78;;;9.30;92.50;;;;;;6316259;28;20051;-78
2023/05/25 03:34:03;;;;;;;18.00;7.47;;;9.30;92.60;;;;;;6316784;28;20045;-79
2023/05/25 03:37:05;;;;;;;13.43;6.57;;;9.30;92.80;;;;;;6317030;28;20259;-78
2023/05/25 03:40:10;;;;;;;9.93;5.30;;;9.20;93.00;;;;;;6316347;28;20040;-78
2023/05/25 03:43:11;;;;;;;8.95;5.32;;;9.20;93.10;;;;;;6316595;28;20061;-79
2023/05/25 03:46:13;;;;;;;14.68;7.80;;;9.20;93.30;;;;;;6316408;28;20047;-79
2023/05/25 03:49:15;;;;;;;11.68;6.65;;;9.20;93.50;;;;;;6316012;28;20049;-78
2023/05/25 03:52:16;;;;;;;13.05;6.70;;;9.10;93.70;;;;;;6316544;28;20650;-78
2023/05/25 03:55:19;;;;;;;9.15;5.30;;;9.10;93.90;;;;;;6317008;28;20048;-78
2023/05/25 03:58:21;;;;;;;15.60;6.00;;;9.00;94.10;;;;;;6315130;28;20059;-79
2023/05/25 04:01:25;;;;;;;12.30;6.80;;;9.00;94.40;;;;;;6314695;28;20041;-79
2023/05/25 04:04:28;;;;;;;12.27;7.15;;;9.00;94.70;;;;;;6315223;28;20135;-78
2023/05/25 04:07:30;;;;;;;12.27;7.97;;;9.10;94.80;;;;;;6315577;28;20057;-78
2023/05/25 04:10:33;;;;;;;15.18;7.25;;;9.10;95.00;;;;;;6316323;28;20048;-79
2023/05/25 04:13:35;;;;;;;9.93;6.65;;;9.20;95.20;;;;;;6314644;28;20041;-79
2023/05/25 04:16:39;;;;;;;8.63;4.90;;;9.20;95.40;;;;;;6314377;28;20089;-79
2023/05/25 04:19:41;;;;;;;12.63;7.40;;;9.30;95.60;;;;;;6314855;28;20552;-79
2023/05/25 04:22:43;;;;;;;11.52;6.50;;;9.30;95.90;;;;;;6314825;28;20051;-79
2023/05/25 04:25:46;;;;;;;9.77;6.80;;;9.50;96.50;;;;;;6313484;28;20044;-79
2023/05/25 04:28:48;;;;;;;17.15;6.38;;;9.70;96.80;;;;;;6313805;28;20059;-79
2023/05/25 04:31:50;;;;;;;13.85;5.65;;;10.10;96.90;;;;;;6314817;28;20066;-79
2023/05/25 04:34:52;;;;;;;11.40;7.20;;;10.60;96.50;;;;;;6303175;28;20047;-79
2023/05/25 04:37:55;;;;;;;13.05;6.00;;;11.10;95.90;;;;;;6287509;28;20075;-79
2023/05/25 04:41:00;;;;;;;14.73;5.90;;;11.30;95.80;;;;;;6288931;28;20060;-79
2023/05/25 04:44:05;;;;;;;8.38;5.47;;;11.80;96.00;;;;;;6288603;28;20044;-79
2023/05/25 04:47:07;;;;;;;10.55;5.53;;;12.40;95.60;;;;;;6306425;28;20059;-79
2023/05/25 04:50:10;;;;;;;14.52;6.15;;;12.90;94.50;;;;;;6314056;28;20047;-79
2023/05/25 04:53:12;;;;;;;13.18;7.05;;;13.30;93.90;;;;;;6314839;28;20041;-79
2023/05/25 04:56:15;;;;;;;11.15;7.60;;;13.80;93.50;;;;;;6312972;28;20526;-79
2023/05/25 04:59:17;;;;;;;17.92;5.80;;;14.40;92.70;;;;;;6313205;28;20063;-78
2023/05/25 05:02:18;;;;;;;12.77;5.57;;;15.00;91.60;;;;;;6313748;28;20049;-78
2023/05/25 05:05:20;;;;;;;8.80;5.03;;;15.50;90.20;;;;;;6314948;28;20596;-79
2023/05/25 05:08:22;;;;;;;10.75;5.60;;;15.70;88.70;;;;;;6313962;28;20063;-78
2023/05/25 05:11:25;;;;;;;9.30;4.45;;;16.10;87.10;;;;;;6295078;28;20049;-79
2023/05/25 05:14:26;;;;;;;9.82;5.18;;;16.40;85.30;;;;;;6289789;28;20049;-78
2023/05/25 05:17:29;;;;;;;7.65;4.38;;;16.70;83.20;;;;;;6289293;28;20041;-79
2023/05/25 05:20:31;;;;;;;12.70;4.75;;;17.10;81.40;;;;;;6289960;28;20183;-78
2023/05/25 05:23:33;;;;;;;13.30;4.78;;;17.30;80.10;;;;;;6289573;28;20045;-78
2023/05/25 05:26:37;;;;;;;8.30;5.03;;;17.30;77.80;;;;;;6290305;28;20065;-78
2023/05/25 05:29:39;;;;;;;15.00;4.70;;;17.40;77.60;;;;;;6289899;28;20045;-78
2023/05/25 05:32:40;;;;;;;10.55;4.70;;;17.90;77.00;;;;;;6287655;28;20052;-78
2023/05/25 05:35:42;;;;;;;9.50;4.57;;;18.40;75.10;;;;;;6287941;28;20059;-78
2023/05/25 05:38:45;;;;;;;12.98;5.15;;;18.80;73.40;;;;;;6288715;28;20045;-78
2023/05/25 05:41:48;;;;;;;15.18;5.97;;;19.00;72.30;;;;;;6287701;28;20057;-78
2023/05/25 05:44:50;;;;;;;8.00;4.95;;;19.30;70.20;;;;;;6288479;28;20045;-78
2023/05/25 05:47:51;;;;;;;17.42;4.32;;;19.50;69.90;;;;;;6291189;28;20133;-78
2023/05/25 05:50:53;;;;;;;7.18;4.00;;;19.80;68.30;;;;;;6293496;28;20120;-78
2023/05/25 05:53:55;;;;;;;16.33;4.22;;;19.80;66.70;;;;;;6292484;28;20048;-79
2023/05/25 05:56:58;;;;;;;10.35;5.15;;;19.70;65.40;;;;;;6292937;28;20051;-78
2023/05/25 05:59:59;;;;;;;14.65;4.43;;;19.30;65.10;;;;;;6292213;28;20041;-79
2023/05/25 06:03:01;;;;;;;11.90;4.65;;;19.30;64.50;;;;;;6295200;28;20052;-79
2023/05/25 06:06:05;;;;;;;15.13;4.75;;;19.30;64.30;;;;;;6280979;28;20051;-78
2023/05/25 06:09:07;;;;;;;7.55;4.30;;;19.40;64.40;;;;;;6275526;28;20056;-78
2023/05/25 06:12:10;;;;;;;9.35;3.80;;;19.90;63.90;;;;;;6275434;28;20045;-79
2023/05/25 06:15:12;;;;;;;12.20;4.47;;;20.30;62.60;;;;;;6277289;28;20445;-79
2023/05/25 06:18:14;;;;;;;13.88;4.43;;;20.80;61.80;;;;;;6278241;28;20049;-79
2023/05/25 06:21:15;;;;;;;6.90;4.18;;;20.90;61.00;;;;;;6288407;28;20394;-79
2023/05/25 06:24:17;;;;;;;8.80;4.05;;;20.90;60.10;;;;;;6304850;28;20049;-79
2023/05/25 06:27:21;;;;;;;12.45;4.20;;;21.00;60.00;;;;;;6304658;28;20048;-79
2023/05/25 06:30:23;;;;;;;11.50;3.53;;;21.10;59.80;;;;;;6302111;28;20044;-78
2023/05/25 06:33:25;;;;;;;17.40;7.35;;;21.10;58.10;;;;;;6303756;28;20048;-78
2023/05/25 06:36:27;;;;;;;8.23;3.88;;;20.80;59.00;;;;;;6304291;28;20045;-78
2023/05/25 06:39:28;;;;;;;15.93;4.35;;;21.00;58.70;;;;;;6306372;28;20044;-79
2023/05/25 06:42:32;;;;;;;14.18;5.88;;;20.90;58.90;;;;;;6290258;28;20053;-78
2023/05/25 06:45:34;;;;;;;8.40;3.90;;;21.20;57.70;;;;;;6228739;28;20068;-79
2023/05/25 06:48:36;;;;;;;11.13;3.92;;;21.10;57.60;;;;;;6263820;28;20048;-77
2023/05/25 06:51:37;;;;;;;8.88;3.55;;;21.10;58.40;;;;;;6282919;28;20056;-78
2023/05/25 06:54:39;;;;;;;10.95;4.72;;;21.50;57.70;;;;;;6295417;28;20046;-78
2023/05/25 06:57:42;;;;;;;10.25;5.10;;;21.80;57.30;;;;;;6282531;28;20049;-78
2023/05/25 07:00:44;;;;;;;12.55;4.00;;;22.20;56.50;;;;;;6279605;28;20052;-78
2023/05/25 07:03:46;;;;;;;13.25;3.97;;;21.90;55.20;;;;;;6285646;28;20041;-77
2023/05/25 07:06:47;;;;;;;12.55;4.85;;;20.90;56.00;;;;;;6288283;28;20059;-78
2023/05/25 07:09:49;;;;;;;5.78;4.35;;;20.20;56.90;;;;;;6288521;28;20045;-78
2023/05/25 07:12:52;;;;;;;12.65;4.88;;;19.30;58.20;;;;;;6288806;28;20061;-78
2023/05/25 07:15:54;;;;;;;9.20;4.30;;;18.80;59.90;;;;;;6288160;28;20041;-79
2023/05/25 07:18:56;;;;;;;8.88;4.15;;;18.50;60.80;;;;;;6304098;28;20045;-77
2023/05/25 07:21:57;;;;;;;12.05;4.63;;;18.30;61.60;;;;;;6312058;28;20045;-77
2023/05/25 07:24:59;;;;;;;12.00;4.60;;;18.30;62.00;;;;;;6310917;28;20499;-78
2023/05/25 07:28:02;;;;;;;8.68;4.32;;;18.20;62.70;;;;;;6309316;28;20127;-78
2023/05/25 07:31:04;;;;;;;8.05;4.72;;;18.10;63.20;;;;;;6310265;28;20045;-78
2023/05/25 07:34:06;;;;;;;7.43;5.25;;;17.90;63.90;;;;;;6313526;28;20063;-79
2023/05/25 07:37:08;;;;;;;17.10;4.93;;;17.90;64.20;;;;;;6309784;28;20052;-78
2023/05/25 07:40:12;;;;;;;12.10;4.53;;;17.90;64.60;;;;;;6312870;28;20083;-79
2023/05/25 07:43:15;;;;;;;12.98;6.38;;;18.00;64.70;;;;;;6315915;28;20053;-78
2023/05/25 07:46:19;;;;;;;12.43;5.00;;;18.00;64.80;;;;;;6311660;28;20052;-78
2023/05/25 07:49:21;;;;;;;17.25;5.13;;;17.90;65.20;;;;;;6303786;28;20062;-79
2023/05/25 07:52:23;;;;;;;15.30;5.10;;;17.90;65.60;;;;;;6313179;28;20070;-78
2023/05/25 07:55:25;;;;;;;10.90;4.97;;;17.90;65.90;;;;;;6312859;28;20432;-79
2023/05/25 07:58:28;;;;;;;13.35;5.40;;;17.90;66.10;;;;;;6312448;28;20044;-77
2023/05/25 08:01:30;;;;;;;10.25;5.38;;;17.90;66.60;;;;;;6315433;28;20154;-77
2023/05/25 08:04:32;;;;;;;13.48;4.40;;;18.20;66.30;;;;;;6313306;28;20478;-78
2023/05/25 08:07:34;;;;;;;10.60;5.53;;;18.30;66.50;;;;;;6309486;28;20116;-78
2023/05/25 08:10:35;;;;;;;8.25;4.53;;;18.30;66.50;;;;;;6309146;28;20465;-79
2023/05/25 08:13:38;;;;;;;10.80;4.82;;;18.50;67.10;;;;;;6309417;28;20049;-78
2023/05/25 08:16:40;;;;;;;11.52;5.75;;;18.80;66.60;;;;;;6302454;28;20056;-78
2023/05/25 08:19:42;;;;;;;15.80;6.38;;;18.80;66.20;;;;;;6309720;28;20051;-78
2023/05/25 08:22:44;;;;;;;8.57;5.13;;;18.80;66.00;;;;;;6312327;28;20139;-78
2023/05/25 08:25:45;;;;;;;17.42;5.47;;;18.80;66.10;;;;;;6311910;28;20044;-78
2023/05/25 08:28:48;;;;;;;16.40;6.28;;;18.80;66.60;;;;;;6310043;28;20054;-78
2023/05/25 08:31:50;;;;;;;14.48;6.53;;;18.80;66.50;;;;;;6308420;28;20040;-78
2023/05/25 08:34:52;;;;;;;12.15;6.45;;;18.70;67.00;;;;;;6279596;28;20076;-78
2023/05/25 08:37:54;;;;;;;12.15;4.80;;;18.90;67.00;;;;;;6273784;28;20057;-78
2023/05/25 08:41:04;;;;;;;12.00;5.88;;;19.30;67.00;;;;;;6276551;28;20045;-78
2023/05/25 08:44:07;;;;;;;11.10;4.72;;;19.60;66.10;;;;;;6278030;28;20064;-78
2023/05/25 08:47:12;;;;;;;12.77;6.35;;;19.90;65.80;;;;;;6286419;28;20095;-78
2023/05/25 08:50:14;;;;;;;18.05;7.53;;;20.10;65.60;;;;;;6305052;28;20411;-78
2023/05/25 08:53:18;;;;;;;9.50;4.53;;;20.10;65.50;;;;;;6303350;28;20060;-78
2023/05/25 08:56:20;;;;;;;13.70;7.55;;;20.30;65.20;;;;;;6270870;28;20108;-78
2023/05/25 08:59:30;;;;;;;10.00;5.97;;;20.20;64.80;;;;;;6274062;28;20140;-78
2023/05/25 09:02:38;;;;;;;14.77;7.55;;;20.00;64.80;;;;;;6270461;28;20060;-78
2023/05/25 09:05:40;;;;;;;11.35;7.18;;;20.00;65.20;;;;;;6272581;28;20087;-77
2023/05/25 09:08:43;;;;;;;12.40;6.60;;;19.90;65.10;;;;;;6270928;28;20064;-77
2023/05/25 09:11:45;;;;;;;10.57;5.93;;;19.90;65.40;;;;;;6271621;28;20049;-79
2023/05/25 09:14:48;;;;;;;13.20;5.43;;;20.00;65.70;;;;;;6274019;28;20060;-78
2023/05/25 09:17:50;;;;;;;9.43;5.65;;;20.10;65.60;;;;;;6271630;28;20045;-79
2023/05/25 09:20:53;;;;;;;9.30;4.97;;;20.30;65.60;;;;;;6271901;28;20044;-78
2023/05/25 09:23:55;;;;;;;7.90;5.10;;;20.50;65.70;;;;;;6274211;28;20096;-79
2023/05/25 09:27:03;;;;;;;14.93;5.88;;;20.80;65.40;;;;;;6274499;28;20040;-79
2023/05/25 09:30:07;;;;;;;;;;;21.00;64.50;;;;;;6279995;28;20385;-79
2023/05/25 09:33:10;;;;;;;10.18;6.20;;;20.80;64.30;;;;;;6278906;28;19932;-79
2023/05/25 09:36:14;;;;;;;12.40;6.90;;;20.70;64.80;;;;;;6279347;28;20045;-79
2023/05/25 09:39:16;;;;;;;11.30;5.40;;;20.80;65.30;;;;;;6277832;28;20045;-79
2023/05/25 09:42:18;;;;;;;10.48;5.85;;;21.20;65.00;;;;;;6277516;28;20069;-79
2023/05/25 09:45:23;;;;;;;12.38;5.35;;;21.40;64.40;;;;;;6277625;28;20045;-79
2023/05/25 09:48:25;;;;;;;9.75;5.68;;;21.40;64.20;;;;;;6279526;28;20055;-79
2023/05/25 09:51:29;;;;;;;13.35;6.50;;;21.40;64.70;;;;;;6278887;28;20059;-79
2023/05/25 09:54:31;;;;;;;11.63;5.65;;;21.50;64.70;;;;;;6280117;28;20045;-79
2023/05/25 09:57:35;;;;;;;14.77;4.97;;;21.70;64.30;;;;;;6278250;28;20052;-80
2023/05/25 10:00:38;;;;;;;11.10;5.63;;;21.90;64.10;;;;;;6277311;28;20052;-79
2023/05/25 10:03:46;;;;;;;8.73;5.35;;;22.10;63.20;;;;;;6280155;28;20049;-78
2023/05/25 10:06:49;;;;;;;7.68;5.05;;;22.40;62.30;;;;;;6278654;28;20124;-80
2023/05/25 10:09:53;;;;;;;14.35;5.97;;;22.50;62.10;;;;;;6278606;28;20060;-79
2023/05/25 10:12:56;;;;;;;9.52;5.00;;;22.50;61.00;;;;;;6279553;28;20045;-79
2023/05/25 10:16:01;;;;;;;10.50;4.55;;;22.50;60.70;;;;;;6276176;28;20055;-79
2023/05/25 10:19:10;;;;;;;15.00;5.43;;;22.40;60.70;;;;;;6278912;28;20068;-79
2023/05/25 10:22:20;;;;;;;13.80;5.10;;;22.70;60.40;;;;;;6278427;28;20135;-79
2023/05/25 10:25:26;;;;;;;9.68;4.22;;;23.00;59.50;;;;;;6280706;28;20547;-79
2023/05/25 10:28:30;;;;;;;10.85;5.18;;;23.20;59.00;;;;;;6279639;28;20041;-79
2023/05/25 10:31:36;;;;;;;14.80;4.47;;;23.60;58.70;;;;;;6278323;28;20139;-79
2023/05/25 10:34:38;;;;;;;11.40;5.32;;;24.20;57.60;;;;;;6284405;28;20044;-80
2023/05/25 10:37:40;;;;;;;9.13;4.72;;;24.80;57.00;;;;;;6282530;28;20048;-78
2023/05/25 10:40:46;;;;;;;7.20;3.92;;;25.30;55.70;;;;;;6286186;28;20087;-80
2023/05/25 10:43:49;;;;;;;9.02;5.88;;;25.60;54.80;;;;;;6290291;28;20063;-79
2023/05/25 10:46:52;;;;;;;8.18;4.07;;;25.40;54.20;;;;;;6282065;28;20064;-80
2023/05/25 10:49:56;;;;;;;11.88;5.68;;;25.10;54.20;;;;;;6276683;28;20075;-80
2023/05/25 10:53:00;;;;;;;10.73;4.72;;;25.10;54.40;;;;;;6279957;28;20315;-79
2023/05/25 10:56:03;;;;;;;9.15;4.65;;;25.20;54.50;;;;;;6276740;28;20049;-79
2023/05/25 10:59:05;;;;;;;9.45;4.35;;;25.20;54.20;;;;;;6278781;28;20117;-79
2023/05/25 11:02:08;;;;;;;12.90;5.22;;;25.30;54.20;;;;;;6276399;28;20391;-80
2023/05/25 11:05:36;;;;;;;9.82;4.68;;;25.40;53.70;;;;;;6276554;28;20053;-80
2023/05/25 11:08:53;;;;;;;8.07;4.60;;;25.20;53.10;;;;;;6278889;28;20483;-80
2023/05/25 11:12:03;;;;;;;7.32;4.05;;;25.30;53.20;;;;;;6277603;28;20049;-79
2023/05/25 11:15:21;;;;;;;14.68;6.50;;;25.40;53.10;;;;;;6274956;28;20038;-79
2023/05/25 11:18:37;;;;;;;10.70;5.47;;;25.70;53.40;;;;;;6275506;28;20049;-80
2023/05/25 11:21:44;;;;;;;8.27;4.68;;;25.70;52.30;;;;;;6273288;28;20054;-81
2023/05/25 11:24:46;;;;;;;8.48;4.07;;;25.70;52.90;;;;;;6269738;28;20037;-78
2023/05/25 11:27:48;;;;;;;12.13;5.45;;;26.10;52.40;;;;;;6262033;28;20415;-77
2023/05/25 11:30:50;;;;;;;8.02;4.85;;;26.20;51.60;;;;;;6273778;28;20060;-79
2023/05/25 11:33:57;;;;;;;9.10;4.35;;;26.00;51.80;;;;;;6278041;28;20144;-79
2023/05/25 11:37:02;;;;;;;10.00;3.75;;;26.00;52.10;;;;;;6290650;28;20124;-80
2023/05/25 11:40:08;;;;;;;10.27;4.57;;;26.00;51.70;;;;;;6294340;28;20562;-80
2023/05/25 11:43:12;;;;;;;7.45;4.18;;;25.80;51.60;;;;;;6283672;28;20055;-80
2023/05/25 11:46:13;;;;;;;10.73;4.70;;;25.50;51.60;;;;;;6299331;28;20049;-82
2023/05/25 11:49:16;;;;;;;7.05;3.83;;;25.30;52.30;;;;;;6301387;28;20044;-80
2023/05/25 11:52:20;;;;;;;7.03;4.13;;;25.60;52.50;;;;;;6302390;28;20506;-80
2023/05/25 11:55:22;;;;;;;10.50;4.00;;;26.20;52.00;;;;;;6300559;28;20482;-79
2023/05/25 11:58:24;;;;;;;8.00;4.30;;;26.40;51.60;;;;;;6296029;28;20070;-80
2023/05/25 12:01:26;;;;;;;7.70;4.07;;;26.50;52.40;;;;;;6296103;28;20048;-78
2023/05/25 12:04:31;;;;;;;6.07;4.30;;;26.80;51.40;;;;;;6294770;28;20049;-79
2023/05/25 12:07:35;;;;;;;10.80;4.60;;;26.80;50.60;;;;;;6297358;28;20055;-79
2023/05/25 12:10:50;;;;;;;7.85;4.30;;;26.50;50.70;;;;;;6307201;28;20040;-80
2023/05/25 12:13:52;;;;;;;8.35;4.60;;;26.30;51.00;;;;;;6312857;28;20039;-78
2023/05/25 12:16:54;;;;;;;10.10;5.53;;;26.30;50.90;;;;;;6311087;28;20104;-79
2023/05/25 12:19:57;;;;;;;12.60;4.82;;;26.50;51.00;;;;;;6311955;28;20471;-79
2023/05/25 12:22:59;;;;;;;5.55;4.13;;;26.80;51.10;;;;;;6308923;28;20051;-80
2023/05/25 12:26:10;;;;;;;9.30;4.20;;;26.60;50.30;;;;;;6308988;28;20053;-78
2023/05/25 12:29:12;;;;;;;12.40;4.88;;;26.60;51.10;;;;;;6308765;28;20051;-78
2023/05/25 12:32:14;;;;;;;13.30;4.72;;;26.60;50.20;;;;;;6308026;28;20044;-79
2023/05/25 12:35:17;;;;;;;14.25;4.82;;;26.50;50.60;;;;;;6307691;28;20037;-79
2023/05/25 12:38:20;;;;;;;7.68;3.75;;;26.80;50.20;;;;;;6297893;28;20132;-77
2023/05/25 12:41:22;;;;;;;8.00;4.13;;;26.80;50.20;;;;;;6286759;28;20074;-79
2023/05/25 12:44:26;;;;;;;7.15;4.30;;;26.80;50.50;;;;;;6269985;28;20056;-79
2023/05/25 12:47:29;;;;;;;13.27;4.00;;;27.20;50.10;;;;;;6273823;28;20072;-79
2023/05/25 12:50:32;;;;;;;9.07;3.65;;;27.30;49.10;;;;;;6269459;28;20124;-77
2023/05/25 12:53:46;;;;;;;5.60;4.00;;;27.40;49.80;;;;;;6273359;28;20061;-78
2023/05/25 12:56:57;;;;;;;7.40;4.15;;;27.80;48.90;;;;;;6265854;28;20442;-78
2023/05/25 12:59:59;;;;;;;8.65;4.60;;;28.10;48.60;;;;;;6268694;28;21019;-81
2023/05/25 13:03:01;;;;;;;7.35;4.28;;;28.30;48.60;;;;;;6266701;28;20601;-79
2023/05/25 13:06:05;;;;;;;11.20;4.43;;;28.60;48.50;;;;;;6297677;28;20028;-77
2023/05/25 13:09:06;;;;;;;8.23;3.88;;;28.50;47.70;;;;;;6290035;28;20139;-78
2023/05/25 13:12:08;;;;;;;10.43;5.75;;;27.80;47.90;;;;;;6286405;28;20040;-78
2023/05/25 13:15:11;;;;;;;6.22;4.25;;;27.60;48.10;;;;;;6277799;28;20040;-78
2023/05/25 13:18:12;;;;;;;5.55;3.67;;;27.30;48.60;;;;;;6282590;28;20336;-79
2023/05/25 13:21:15;;;;;;;8.65;4.45;;;27.30;48.50;;;;;;6280133;28;20422;-78
2023/05/25 13:24:19;;;;;;;8.45;4.40;;;27.00;48.30;;;;;;6284568;28;20079;-79
2023/05/25 13:27:20;;;;;;;11.73;4.80;;;26.80;49.00;;;;;;6272300;28;20041;-78
2023/05/25 13:30:22;;;;;;;7.65;4.53;;;26.90;49.20;;;;;;6273415;28;20048;-79
2023/05/25 13:33:24;;;;;;;7.57;4.75;;;27.30;49.20;;;;;;6274425;28;20057;-79
2023/05/25 13:36:28;;;;;;;6.47;4.45;;;27.80;49.00;;;;;;6273531;28;20052;-80
2023/05/25 13:39:29;;;;;;;11.85;3.97;;;27.90;48.10;;;;;;6264231;28;20079;-82
2023/05/25 13:42:31;;;;;;;7.82;4.60;;;27.40;48.10;;;;;;6304310;28;20174;-78
2023/05/25 13:45:33;;;;;;;7.20;4.03;;;27.20;48.80;;;;;;6286733;28;20055;-82
2023/05/25 13:48:34;;;;;;;3.97;3.58;;;27.40;49.00;;;;;;6273800;28;20037;-77
2023/05/25 13:51:37;;;;;;;6.85;3.97;;;27.60;48.70;;;;;;6275633;28;20056;-79
2023/05/25 13:54:39;;;;;;;10.80;5.00;;;27.60;48.30;;;;;;6280861;28;20067;-79
2023/05/25 13:57:41;;;;;;;5.03;3.33;;;27.30;48.20;;;;;;6279301;28;20055;-80
2023/05/25 14:00:42;;;;;;;9.80;4.28;;;27.40;48.40;;;;;;6275422;28;20394;-79
2023/05/25 14:03:44;;;;;;;6.10;4.07;;;27.20;48.40;;;;;;6273672;28;20045;-79
2023/05/25 14:06:47;;;;;;;6.07;3.95;;;27.20;49.00;;;;;;6275283;28;20107;-79
2023/05/25 14:09:49;;;;;;;9.02;4.72;;;27.30;49.30;;;;;;6279390;28;20051;-79
2023/05/25 14:12:51;;;;;;;4.35;3.53;;;27.70;49.10;;;;;;6295278;28;20118;-79
2023/05/25 14:15:53;;;;;;;8.55;4.15;;;28.00;48.60;;;;;;6293285;28;20091;-79
2023/05/25 14:18:55;;;;;;;9.93;3.25;;;28.10;48.30;;;;;;6284779;28;20057;-79
2023/05/25 14:21:58;;;;;;;6.57;3.78;;;28.10;48.40;;;;;;6286927;28;20049;-78
2023/05/25 14:25:00;;;;;;;7.47;4.13;;;28.10;48.50;;;;;;6280488;28;20041;-77
2023/05/25 14:28:01;;;;;;;14.30;4.63;;;28.10;47.90;;;;;;6284361;28;20043;-81
2023/05/25 14:31:03;;;;;;;5.53;3.88;;;27.80;48.10;;;;;;6297657;28;20048;-80
2023/05/25 14:34:05;;;;;;;10.00;4.07;;;27.80;48.30;;;;;;6297918;28;20683;-78
2023/05/25 14:37:08;;;;;;;8.10;3.95;;;27.80;48.20;;;;;;6300874;28;20049;-81
2023/05/25 14:40:11;;;;;;;9.65;3.97;;;27.90;48.20;;;;;;6298742;28;20056;-80
2023/05/25 14:43:12;;;;;;;8.25;3.63;;;27.90;48.70;;;;;;6300579;28;20052;-80
2023/05/25 14:46:14;;;;;;;5.97;3.90;;;27.70;48.30;;;;;;6302542;28;20040;-79
2023/05/25 14:49:16;;;;;;;6.47;3.88;;;27.70;48.60;;;;;;6314183;28;20049;-80
2023/05/25 14:52:19;;;;;;;11.13;4.43;;;27.80;48.40;;;;;;6309242;28;20102;-79
2023/05/25 14:55:21;;;;;;;7.68;3.92;;;27.60;48.60;;;;;;6310499;28;20068;-80
2023/05/25 14:58:23;;;;;;;6.45;4.15;;;27.40;48.40;;;;;;6303089;28;20056;-80
2023/05/25 15:01:25;;;;;;;6.97;3.55;;;27.00;48.60;;;;;;6308172;28;20068;-81
2023/05/25 15:04:28;;;;;;;5.80;3.55;;;26.90;49.30;;;;;;6309339;28;20483;-79
2023/05/25 15:07:31;;;;;;;9.15;4.20;;;27.00;49.50;;;;;;6305809;28;20039;-81
2023/05/25 15:10:33;;;;;;;7.57;3.67;;;27.20;49.90;;;;;;6308681;28;20055;-77
2023/05/25 15:13:35;;;;;;;6.90;4.00;;;27.20;49.60;;;;;;6308580;28;20048;-80
2023/05/25 15:16:36;;;;;;;10.73;4.18;;;27.00;49.50;;;;;;6305798;28;20040;-80
2023/05/25 15:19:38;;;;;;;4.05;3.67;;;27.00;49.60;;;;;;6293649;22;20044;-82
2023/05/25 15:22:41;;;;;;;5.20;3.90;;;27.10;49.50;;;;;;6264887;28;20052;-81
2023/05/25 15:25:43;;;;;;;7.68;3.95;;;27.00;49.50;;;;;;6261385;28;20040;-82
2023/05/25 15:28:44;;;;;;;6.35;4.25;;;26.90;49.40;;;;;;6268271;28;20534;-83
2023/05/25 15:31:49;;;;;;;4.07;3.63;;;26.60;49.50;;;;;;6275490;28;20052;-83
2023/05/25 15:34:50;;;;;;;9.25;4.50;;;26.40;50.20;;;;;;6277949;28;20487;-82
2023/05/25 15:37:54;;;;;;;7.45;3.30;;;26.40;50.10;;;;;;6272623;28;20062;-83
2023/05/25 15:40:55;;;;;;;9.98;3.58;;;26.40;50.30;;;;;;6273024;28;20045;-81
2023/05/25 15:43:59;;;;;;;9.35;4.03;;;26.70;50.30;;;;;;6279293;28;20037;-82
2023/05/25 15:47:01;;;;;;;8.13;3.72;;;26.60;49.90;;;;;;6275340;28;20052;-81
2023/05/25 15:50:03;;;;;;;6.63;4.18;;;26.30;49.90;;;;;;6278037;28;20406;-81